sensor_id;sensor_type;location;lat;lon;timestamp;P1;durP1;ratioP1;P2;durP2;ratioP2
10884;SDS011;5495;53.252;10.390;2022-11-15T00:02:05;27.67;;;19.63;;
10884;SDS011;5495;53.252;10.390;2022-11-15T00:04:33;27.00;;;18.00;;
10884;SDS011;5495;53.252;10.390;2022-11-15T00:07:00;27.33;;;19.03;;
10884;SDS011;5495;53.252;10.390;2022-11-15T00:09:27;28.43;;;18.97;;
10884;SDS011;5495;53.252;10.390;2022-11-15T00:11:54;28.03;;;18.20;;
10884;SDS011;5495;53.252;10.390;2022-11-15T00:14:21;24.93;;;18.70;;
10884;SDS011;5495;53.252;10.390;2022-11-15T00:16:48;26.37;;;17.97;;
10884;SDS011;5495;53.252;10.390;2022-11-15T00:19:15;26.57;;;19.03;;
10884;SDS011;5495;53.252;10.390;2022-11-15T00:21:42;23.57;;;17.97;;
10884;SDS011;5495;53.252;10.390;2022-11-15T00:24:10;27.03;;;18.70;;
10884;SDS011;5495;53.252;10.390;2022-11-15T00:26:37;25.23;;;17.83;;
10884;SDS011;5495;53.252;10.390;2022-11-15T00:29:04;26.80;;;18.13;;
10884;SDS011;5495;53.252;10.390;2022-11-15T00:31:31;25.93;;;19.03;;
10884;SDS011;5495;53.252;10.390;2022-11-15T00:33:58;24.20;;;17.07;;
10884;SDS011;5495;53.252;10.390;2022-11-15T00:36:25;26.77;;;19.23;;
10884;SDS011;5495;53.252;10.390;2022-11-15T00:38:51;26.67;;;18.60;;
10884;SDS011;5495;53.252;10.390;2022-11-15T00:41:19;26.00;;;18.93;;
10884;SDS011;5495;53.252;10.390;2022-11-15T00:43:46;26.40;;;17.57;;
10884;SDS011;5495;53.252;10.390;2022-11-15T00:46:13;26.67;;;17.83;;
10884;SDS011;5495;53.252;10.390;2022-11-15T00:48:40;25.67;;;19.03;;
10884;SDS011;5495;53.252;10.390;2022-11-15T00:51:07;26.73;;;18.80;;
10884;SDS011;5495;53.252;10.390;2022-11-15T00:53:34;22.60;;;17.23;;
10884;SDS011;5495;53.252;10.390;2022-11-15T00:56:01;24.30;;;17.07;;
10884;SDS011;5495;53.252;10.390;2022-11-15T00:58:29;24.70;;;17.87;;
10884;SDS011;5495;53.252;10.390;2022-11-15T01:00:56;25.13;;;17.93;;
10884;SDS011;5495;53.252;10.390;2022-11-15T01:03:32;24.43;;;17.00;;
10884;SDS011;5495;53.252;10.390;2022-11-15T01:05:59;24.50;;;17.40;;
10884;SDS011;5495;53.252;10.390;2022-11-15T01:08:26;24.80;;;18.13;;
10884;SDS011;5495;53.252;10.390;2022-11-15T01:10:53;22.43;;;17.53;;
10884;SDS011;5495;53.252;10.390;2022-11-15T01:13:20;27.10;;;17.83;;
10884;SDS011;5495;53.252;10.390;2022-11-15T01:15:48;22.47;;;16.93;;
10884;SDS011;5495;53.252;10.390;2022-11-15T01:18:14;24.20;;;17.30;;
10884;SDS011;5495;53.252;10.390;2022-11-15T01:20:42;24.10;;;16.87;;
10884;SDS011;5495;53.252;10.390;2022-11-15T01:23:09;26.73;;;17.53;;
10884;SDS011;5495;53.252;10.390;2022-11-15T01:25:36;21.23;;;16.37;;
10884;SDS011;5495;53.252;10.390;2022-11-15T01:28:03;24.07;;;16.43;;
10884;SDS011;5495;53.252;10.390;2022-11-15T01:30:30;19.63;;;15.00;;
10884;SDS011;5495;53.252;10.390;2022-11-15T01:32:58;25.60;;;16.13;;
10884;SDS011;5495;53.252;10.390;2022-11-15T01:35:25;20.73;;;15.93;;
10884;SDS011;5495;53.252;10.390;2022-11-15T01:37:52;19.07;;;14.80;;
10884;SDS011;5495;53.252;10.390;2022-11-15T01:40:18;21.50;;;15.87;;
10884;SDS011;5495;53.252;10.390;2022-11-15T01:42:45;20.73;;;15.27;;
10884;SDS011;5495;53.252;10.390;2022-11-15T01:45:12;23.43;;;16.87;;
10884;SDS011;5495;53.252;10.390;2022-11-15T01:47:42;22.93;;;16.60;;
10884;SDS011;5495;53.252;10.390;2022-11-15T01:50:13;19.43;;;15.67;;
10884;SDS011;5495;53.252;10.390;2022-11-15T01:52:43;20.30;;;15.57;;
10884;SDS011;5495;53.252;10.390;2022-11-15T01:55:11;21.60;;;15.43;;
10884;SDS011;5495;53.252;10.390;2022-11-15T01:57:40;21.23;;;14.77;;
10884;SDS011;5495;53.252;10.390;2022-11-15T02:00:10;19.97;;;14.40;;
10884;SDS011;5495;53.252;10.390;2022-11-15T02:02:38;20.40;;;14.70;;
10884;SDS011;5495;53.252;10.390;2022-11-15T02:05:05;19.53;;;13.90;;
10884;SDS011;5495;53.252;10.390;2022-11-15T02:07:36;19.17;;;13.57;;
10884;SDS011;5495;53.252;10.390;2022-11-15T02:10:05;20.73;;;14.07;;
10884;SDS011;5495;53.252;10.390;2022-11-15T02:12:33;20.83;;;14.73;;
10884;SDS011;5495;53.252;10.390;2022-11-15T02:15:02;17.77;;;14.00;;
10884;SDS011;5495;53.252;10.390;2022-11-15T02:17:33;20.43;;;15.10;;
10884;SDS011;5495;53.252;10.390;2022-11-15T02:20:27;18.93;;;14.00;;
10884;SDS011;5495;53.252;10.390;2022-11-15T02:23:31;19.60;;;13.97;;
10884;SDS011;5495;53.252;10.390;2022-11-15T02:29:32;18.57;;;13.23;;
10884;SDS011;5495;53.252;10.390;2022-11-15T02:32:14;18.07;;;13.90;;
10884;SDS011;5495;53.252;10.390;2022-11-15T02:34:47;18.30;;;13.40;;
10884;SDS011;5495;53.252;10.390;2022-11-15T02:37:22;24.23;;;14.63;;
10884;SDS011;5495;53.252;10.390;2022-11-15T02:39:58;20.67;;;14.17;;
10884;SDS011;5495;53.252;10.390;2022-11-15T02:42:31;20.37;;;13.53;;
10884;SDS011;5495;53.252;10.390;2022-11-15T02:45:20;18.47;;;13.77;;
10884;SDS011;5495;53.252;10.390;2022-11-15T02:47:54;19.13;;;14.30;;
10884;SDS011;5495;53.252;10.390;2022-11-15T02:50:23;19.40;;;13.83;;
10884;SDS011;5495;53.252;10.390;2022-11-15T02:52:56;18.47;;;13.90;;
10884;SDS011;5495;53.252;10.390;2022-11-15T02:55:26;20.73;;;13.80;;
10884;SDS011;5495;53.252;10.390;2022-11-15T02:57:56;20.17;;;14.53;;
10884;SDS011;5495;53.252;10.390;2022-11-15T03:00:30;21.53;;;14.40;;
10884;SDS011;5495;53.252;10.390;2022-11-15T03:03:05;22.10;;;16.20;;
10884;SDS011;5495;53.252;10.390;2022-11-15T03:05:46;23.70;;;16.20;;
10884;SDS011;5495;53.252;10.390;2022-11-15T03:08:21;24.87;;;16.57;;
10884;SDS011;5495;53.252;10.390;2022-11-15T03:10:56;22.03;;;16.83;;
10884;SDS011;5495;53.252;10.390;2022-11-15T03:13:34;23.00;;;16.30;;
10884;SDS011;5495;53.252;10.390;2022-11-15T03:16:08;20.27;;;15.50;;
10884;SDS011;5495;53.252;10.390;2022-11-15T03:18:41;23.03;;;14.43;;
10884;SDS011;5495;53.252;10.390;2022-11-15T03:21:13;19.00;;;14.17;;
10884;SDS011;5495;53.252;10.390;2022-11-15T03:23:42;17.13;;;13.23;;
10884;SDS011;5495;53.252;10.390;2022-11-15T03:26:11;17.77;;;13.53;;
10884;SDS011;5495;53.252;10.390;2022-11-15T03:28:40;17.60;;;12.97;;
10884;SDS011;5495;53.252;10.390;2022-11-15T03:31:12;19.37;;;13.50;;
10884;SDS011;5495;53.252;10.390;2022-11-15T03:34:00;21.17;;;13.63;;
10884;SDS011;5495;53.252;10.390;2022-11-15T03:36:34;17.23;;;13.20;;
10884;SDS011;5495;53.252;10.390;2022-11-15T03:39:04;17.73;;;12.40;;
10884;SDS011;5495;53.252;10.390;2022-11-15T03:41:34;19.07;;;13.50;;
10884;SDS011;5495;53.252;10.390;2022-11-15T03:44:08;17.60;;;12.97;;
10884;SDS011;5495;53.252;10.390;2022-11-15T03:46:41;17.90;;;13.50;;
10884;SDS011;5495;53.252;10.390;2022-11-15T03:49:15;17.77;;;12.80;;
10884;SDS011;5495;53.252;10.390;2022-11-15T03:51:46;17.37;;;13.27;;
10884;SDS011;5495;53.252;10.390;2022-11-15T03:54:13;20.47;;;14.20;;
10884;SDS011;5495;53.252;10.390;2022-11-15T03:56:39;21.63;;;13.53;;
10884;SDS011;5495;53.252;10.390;2022-11-15T03:59:06;18.23;;;12.93;;
10884;SDS011;5495;53.252;10.390;2022-11-15T04:01:33;20.33;;;13.80;;
10884;SDS011;5495;53.252;10.390;2022-11-15T04:04:00;17.53;;;12.47;;
10884;SDS011;5495;53.252;10.390;2022-11-15T04:06:28;18.63;;;12.93;;
10884;SDS011;5495;53.252;10.390;2022-11-15T04:08:55;17.30;;;12.70;;
10884;SDS011;5495;53.252;10.390;2022-11-15T04:11:22;19.93;;;13.93;;
10884;SDS011;5495;53.252;10.390;2022-11-15T04:13:49;18.63;;;13.00;;
10884;SDS011;5495;53.252;10.390;2022-11-15T04:16:16;17.93;;;13.27;;
10884;SDS011;5495;53.252;10.390;2022-11-15T04:18:43;17.60;;;13.53;;
10884;SDS011;5495;53.252;10.390;2022-11-15T04:21:31;17.60;;;13.23;;
10884;SDS011;5495;53.252;10.390;2022-11-15T04:24:16;17.27;;;13.00;;
10884;SDS011;5495;53.252;10.390;2022-11-15T04:26:43;17.27;;;12.93;;
10884;SDS011;5495;53.252;10.390;2022-11-15T04:29:09;18.67;;;13.23;;
10884;SDS011;5495;53.252;10.390;2022-11-15T04:31:54;18.93;;;13.23;;
10884;SDS011;5495;53.252;10.390;2022-11-15T04:34:21;17.03;;;12.50;;
10884;SDS011;5495;53.252;10.390;2022-11-15T04:36:49;19.30;;;12.10;;
10884;SDS011;5495;53.252;10.390;2022-11-15T04:39:34;16.20;;;10.97;;
10884;SDS011;5495;53.252;10.390;2022-11-15T04:42:01;15.80;;;11.53;;
10884;SDS011;5495;53.252;10.390;2022-11-15T04:44:28;16.50;;;11.17;;
10884;SDS011;5495;53.252;10.390;2022-11-15T04:46:55;15.53;;;12.03;;
10884;SDS011;5495;53.252;10.390;2022-11-15T04:49:22;16.77;;;12.67;;
10884;SDS011;5495;53.252;10.390;2022-11-15T04:51:50;18.63;;;11.70;;
10884;SDS011;5495;53.252;10.390;2022-11-15T04:54:17;16.20;;;11.97;;
10884;SDS011;5495;53.252;10.390;2022-11-15T04:56:44;15.73;;;11.17;;
10884;SDS011;5495;53.252;10.390;2022-11-15T04:59:10;14.77;;;11.27;;
10884;SDS011;5495;53.252;10.390;2022-11-15T05:01:37;18.60;;;12.80;;
10884;SDS011;5495;53.252;10.390;2022-11-15T05:04:04;17.50;;;11.93;;
10884;SDS011;5495;53.252;10.390;2022-11-15T05:06:47;18.43;;;12.00;;
10884;SDS011;5495;53.252;10.390;2022-11-15T05:09:16;18.83;;;11.37;;
10884;SDS011;5495;53.252;10.390;2022-11-15T05:11:44;14.17;;;10.50;;
10884;SDS011;5495;53.252;10.390;2022-11-15T05:14:13;13.80;;;10.57;;
10884;SDS011;5495;53.252;10.390;2022-11-15T05:16:40;15.87;;;11.30;;
10884;SDS011;5495;53.252;10.390;2022-11-15T05:19:07;14.07;;;10.20;;
10884;SDS011;5495;53.252;10.390;2022-11-15T05:21:35;14.27;;;10.60;;
10884;SDS011;5495;53.252;10.390;2022-11-15T05:24:01;16.10;;;11.17;;
10884;SDS011;5495;53.252;10.390;2022-11-15T05:26:30;15.90;;;11.27;;
10884;SDS011;5495;53.252;10.390;2022-11-15T05:28:57;14.43;;;11.10;;
10884;SDS011;5495;53.252;10.390;2022-11-15T05:31:25;16.63;;;12.10;;
10884;SDS011;5495;53.252;10.390;2022-11-15T05:33:53;15.00;;;11.63;;
10884;SDS011;5495;53.252;10.390;2022-11-15T05:36:25;15.57;;;11.40;;
10884;SDS011;5495;53.252;10.390;2022-11-15T05:38:57;15.83;;;11.70;;
10884;SDS011;5495;53.252;10.390;2022-11-15T05:41:25;15.10;;;11.33;;
10884;SDS011;5495;53.252;10.390;2022-11-15T05:43:57;18.50;;;11.63;;
10884;SDS011;5495;53.252;10.390;2022-11-15T05:46:26;17.37;;;12.07;;
10884;SDS011;5495;53.252;10.390;2022-11-15T05:48:53;16.40;;;12.13;;
10884;SDS011;5495;53.252;10.390;2022-11-15T05:51:23;18.97;;;13.23;;
10884;SDS011;5495;53.252;10.390;2022-11-15T05:53:50;17.50;;;12.70;;
10884;SDS011;5495;53.252;10.390;2022-11-15T05:56:19;16.23;;;11.63;;
10884;SDS011;5495;53.252;10.390;2022-11-15T05:58:48;18.03;;;12.23;;
10884;SDS011;5495;53.252;10.390;2022-11-15T06:01:16;17.53;;;13.03;;
10884;SDS011;5495;53.252;10.390;2022-11-15T06:03:43;20.47;;;12.67;;
10884;SDS011;5495;53.252;10.390;2022-11-15T06:06:10;21.23;;;12.97;;
10884;SDS011;5495;53.252;10.390;2022-11-15T06:08:37;19.17;;;14.13;;
10884;SDS011;5495;53.252;10.390;2022-11-15T06:11:05;23.20;;;14.20;;
10884;SDS011;5495;53.252;10.390;2022-11-15T06:13:32;18.07;;;13.30;;
10884;SDS011;5495;53.252;10.390;2022-11-15T06:16:00;17.10;;;12.57;;
10884;SDS011;5495;53.252;10.390;2022-11-15T06:18:27;19.43;;;13.77;;
10884;SDS011;5495;53.252;10.390;2022-11-15T06:20:58;20.93;;;14.63;;
10884;SDS011;5495;53.252;10.390;2022-11-15T06:23:25;20.13;;;14.23;;
10884;SDS011;5495;53.252;10.390;2022-11-15T06:25:52;21.53;;;14.37;;
10884;SDS011;5495;53.252;10.390;2022-11-15T06:28:19;24.33;;;14.97;;
10884;SDS011;5495;53.252;10.390;2022-11-15T06:30:46;18.23;;;13.57;;
10884;SDS011;5495;53.252;10.390;2022-11-15T06:33:13;20.77;;;14.63;;
10884;SDS011;5495;53.252;10.390;2022-11-15T06:35:41;20.17;;;13.73;;
10884;SDS011;5495;53.252;10.390;2022-11-15T06:38:09;20.27;;;14.07;;
10884;SDS011;5495;53.252;10.390;2022-11-15T06:40:37;17.50;;;13.70;;
10884;SDS011;5495;53.252;10.390;2022-11-15T06:43:05;21.17;;;14.07;;
10884;SDS011;5495;53.252;10.390;2022-11-15T06:45:32;20.30;;;14.40;;
10884;SDS011;5495;53.252;10.390;2022-11-15T06:47:59;20.57;;;14.93;;
10884;SDS011;5495;53.252;10.390;2022-11-15T06:50:26;21.97;;;14.20;;
10884;SDS011;5495;53.252;10.390;2022-11-15T06:53:01;22.57;;;15.07;;
10884;SDS011;5495;53.252;10.390;2022-11-15T06:55:30;20.57;;;14.40;;
10884;SDS011;5495;53.252;10.390;2022-11-15T06:57:57;18.80;;;13.80;;
10884;SDS011;5495;53.252;10.390;2022-11-15T07:00:24;22.47;;;15.17;;
10884;SDS011;5495;53.252;10.390;2022-11-15T07:02:52;23.83;;;14.43;;
10884;SDS011;5495;53.252;10.390;2022-11-15T07:05:19;20.00;;;14.60;;
10884;SDS011;5495;53.252;10.390;2022-11-15T07:07:50;19.43;;;13.50;;
10884;SDS011;5495;53.252;10.390;2022-11-15T07:10:19;21.03;;;14.57;;
10884;SDS011;5495;53.252;10.390;2022-11-15T07:12:46;18.67;;;14.43;;
10884;SDS011;5495;53.252;10.390;2022-11-15T07:15:14;20.33;;;14.17;;
10884;SDS011;5495;53.252;10.390;2022-11-15T07:17:41;23.10;;;15.67;;
10884;SDS011;5495;53.252;10.390;2022-11-15T07:20:08;20.80;;;14.43;;
10884;SDS011;5495;53.252;10.390;2022-11-15T07:22:36;23.43;;;14.97;;
10884;SDS011;5495;53.252;10.390;2022-11-15T07:25:03;18.13;;;14.07;;
10884;SDS011;5495;53.252;10.390;2022-11-15T07:27:31;21.53;;;15.33;;
10884;SDS011;5495;53.252;10.390;2022-11-15T07:29:58;24.40;;;15.47;;
10884;SDS011;5495;53.252;10.390;2022-11-15T07:32:25;20.30;;;14.43;;
10884;SDS011;5495;53.252;10.390;2022-11-15T07:34:52;22.37;;;14.70;;
10884;SDS011;5495;53.252;10.390;2022-11-15T07:37:19;20.00;;;14.63;;
10884;SDS011;5495;53.252;10.390;2022-11-15T07:39:46;20.93;;;15.37;;
10884;SDS011;5495;53.252;10.390;2022-11-15T07:42:13;24.00;;;16.13;;
10884;SDS011;5495;53.252;10.390;2022-11-15T07:45:01;24.37;;;15.73;;
10884;SDS011;5495;53.252;10.390;2022-11-15T07:47:28;22.30;;;15.23;;
10884;SDS011;5495;53.252;10.390;2022-11-15T07:49:55;21.27;;;14.97;;
10884;SDS011;5495;53.252;10.390;2022-11-15T07:52:22;21.30;;;14.90;;
10884;SDS011;5495;53.252;10.390;2022-11-15T07:54:52;22.17;;;15.77;;
10884;SDS011;5495;53.252;10.390;2022-11-15T07:57:19;22.30;;;14.90;;
10884;SDS011;5495;53.252;10.390;2022-11-15T07:59:46;20.67;;;15.40;;
10884;SDS011;5495;53.252;10.390;2022-11-15T08:02:14;22.03;;;15.30;;
10884;SDS011;5495;53.252;10.390;2022-11-15T08:04:42;24.93;;;16.80;;
10884;SDS011;5495;53.252;10.390;2022-11-15T08:07:09;25.37;;;15.37;;
10884;SDS011;5495;53.252;10.390;2022-11-15T08:09:36;21.70;;;15.30;;
10884;SDS011;5495;53.252;10.390;2022-11-15T08:12:03;22.40;;;14.43;;
10884;SDS011;5495;53.252;10.390;2022-11-15T08:14:30;22.40;;;14.90;;
10884;SDS011;5495;53.252;10.390;2022-11-15T08:16:57;21.23;;;14.73;;
10884;SDS011;5495;53.252;10.390;2022-11-15T08:19:25;18.90;;;14.17;;
10884;SDS011;5495;53.252;10.390;2022-11-15T08:21:52;19.87;;;14.47;;
10884;SDS011;5495;53.252;10.390;2022-11-15T08:24:18;19.27;;;13.40;;
10884;SDS011;5495;53.252;10.390;2022-11-15T08:26:46;17.97;;;14.47;;
10884;SDS011;5495;53.252;10.390;2022-11-15T08:29:13;20.23;;;13.50;;
10884;SDS011;5495;53.252;10.390;2022-11-15T08:31:40;19.50;;;12.90;;
10884;SDS011;5495;53.252;10.390;2022-11-15T08:34:07;17.00;;;13.07;;
10884;SDS011;5495;53.252;10.390;2022-11-15T08:36:35;17.43;;;12.93;;
10884;SDS011;5495;53.252;10.390;2022-11-15T08:39:02;21.17;;;13.10;;
10884;SDS011;5495;53.252;10.390;2022-11-15T08:41:32;18.33;;;13.30;;
10884;SDS011;5495;53.252;10.390;2022-11-15T08:44:03;20.63;;;13.20;;
10884;SDS011;5495;53.252;10.390;2022-11-15T08:46:32;18.30;;;13.73;;
10884;SDS011;5495;53.252;10.390;2022-11-15T08:49:00;17.63;;;13.07;;
10884;SDS011;5495;53.252;10.390;2022-11-15T08:51:27;20.13;;;13.70;;
10884;SDS011;5495;53.252;10.390;2022-11-15T08:53:54;18.73;;;13.57;;
10884;SDS011;5495;53.252;10.390;2022-11-15T08:56:21;18.50;;;12.77;;
10884;SDS011;5495;53.252;10.390;2022-11-15T08:58:48;17.17;;;12.47;;
10884;SDS011;5495;53.252;10.390;2022-11-15T09:01:16;14.07;;;11.43;;
10884;SDS011;5495;53.252;10.390;2022-11-15T09:03:44;15.50;;;12.03;;
10884;SDS011;5495;53.252;10.390;2022-11-15T09:06:14;15.83;;;11.20;;
10884;SDS011;5495;53.252;10.390;2022-11-15T09:08:41;16.97;;;13.17;;
10884;SDS011;5495;53.252;10.390;2022-11-15T09:11:09;18.80;;;12.17;;
10884;SDS011;5495;53.252;10.390;2022-11-15T09:13:37;16.63;;;13.17;;
10884;SDS011;5495;53.252;10.390;2022-11-15T09:16:05;17.47;;;12.93;;
10884;SDS011;5495;53.252;10.390;2022-11-15T09:18:32;19.50;;;12.73;;
10884;SDS011;5495;53.252;10.390;2022-11-15T09:20:59;17.93;;;12.80;;
10884;SDS011;5495;53.252;10.390;2022-11-15T09:23:27;19.07;;;12.60;;
10884;SDS011;5495;53.252;10.390;2022-11-15T09:25:58;16.93;;;11.40;;
10884;SDS011;5495;53.252;10.390;2022-11-15T09:28:26;18.20;;;13.03;;
10884;SDS011;5495;53.252;10.390;2022-11-15T09:30:55;17.23;;;11.87;;
10884;SDS011;5495;53.252;10.390;2022-11-15T09:33:23;17.20;;;11.40;;
10884;SDS011;5495;53.252;10.390;2022-11-15T09:35:50;18.77;;;12.87;;
10884;SDS011;5495;53.252;10.390;2022-11-15T09:38:20;18.63;;;11.53;;
10884;SDS011;5495;53.252;10.390;2022-11-15T09:40:48;17.80;;;12.40;;
10884;SDS011;5495;53.252;10.390;2022-11-15T09:43:25;15.13;;;11.57;;
10884;SDS011;5495;53.252;10.390;2022-11-15T09:46:02;22.67;;;13.37;;
10884;SDS011;5495;53.252;10.390;2022-11-15T09:48:44;15.93;;;10.90;;
10884;SDS011;5495;53.252;10.390;2022-11-15T09:51:21;14.73;;;11.27;;
10884;SDS011;5495;53.252;10.390;2022-11-15T09:53:55;15.67;;;11.43;;
10884;SDS011;5495;53.252;10.390;2022-11-15T09:56:37;17.13;;;11.60;;
10884;SDS011;5495;53.252;10.390;2022-11-15T09:59:13;16.60;;;11.50;;
10884;SDS011;5495;53.252;10.390;2022-11-15T10:02:01;18.93;;;11.53;;
10884;SDS011;5495;53.252;10.390;2022-11-15T10:04:41;14.97;;;11.40;;
10884;SDS011;5495;53.252;10.390;2022-11-15T10:07:15;16.60;;;11.70;;
10884;SDS011;5495;53.252;10.390;2022-11-15T10:09:45;15.57;;;11.10;;
10884;SDS011;5495;53.252;10.390;2022-11-15T10:12:19;18.00;;;11.00;;
10884;SDS011;5495;53.252;10.390;2022-11-15T10:14:46;14.50;;;10.83;;
10884;SDS011;5495;53.252;10.390;2022-11-15T10:17:25;14.37;;;10.90;;
10884;SDS011;5495;53.252;10.390;2022-11-15T10:20:07;13.50;;;9.93;;
10884;SDS011;5495;53.252;10.390;2022-11-15T10:22:40;12.23;;;9.77;;
10884;SDS011;5495;53.252;10.390;2022-11-15T10:25:16;13.23;;;10.27;;
10884;SDS011;5495;53.252;10.390;2022-11-15T10:27:50;15.53;;;10.10;;
10884;SDS011;5495;53.252;10.390;2022-11-15T10:30:23;13.27;;;10.27;;
10884;SDS011;5495;53.252;10.390;2022-11-15T10:32:56;13.63;;;10.13;;
10884;SDS011;5495;53.252;10.390;2022-11-15T10:35:24;16.57;;;10.17;;
10884;SDS011;5495;53.252;10.390;2022-11-15T10:37:58;14.53;;;9.70;;
10884;SDS011;5495;53.252;10.390;2022-11-15T10:40:31;14.87;;;9.57;;
10884;SDS011;5495;53.252;10.390;2022-11-15T10:43:04;14.30;;;9.20;;
10884;SDS011;5495;53.252;10.390;2022-11-15T10:45:42;13.83;;;9.80;;
10884;SDS011;5495;53.252;10.390;2022-11-15T10:48:25;15.73;;;9.17;;
10884;SDS011;5495;53.252;10.390;2022-11-15T10:50:52;15.57;;;9.80;;
10884;SDS011;5495;53.252;10.390;2022-11-15T10:53:22;13.13;;;9.53;;
10884;SDS011;5495;53.252;10.390;2022-11-15T10:55:54;11.97;;;8.97;;
10884;SDS011;5495;53.252;10.390;2022-11-15T10:58:29;12.10;;;9.20;;
10884;SDS011;5495;53.252;10.390;2022-11-15T11:01:09;12.77;;;8.97;;
10884;SDS011;5495;53.252;10.390;2022-11-15T11:03:37;14.60;;;9.33;;
10884;SDS011;5495;53.252;10.390;2022-11-15T11:06:06;12.60;;;9.13;;
10884;SDS011;5495;53.252;10.390;2022-11-15T11:08:35;13.80;;;9.17;;
10884;SDS011;5495;53.252;10.390;2022-11-15T11:11:02;10.93;;;8.07;;
10884;SDS011;5495;53.252;10.390;2022-11-15T11:13:31;15.87;;;9.23;;
10884;SDS011;5495;53.252;10.390;2022-11-15T11:16:16;9.73;;;8.20;;
10884;SDS011;5495;53.252;10.390;2022-11-15T11:19:27;12.70;;;8.53;;
10884;SDS011;5495;53.252;10.390;2022-11-15T11:22:16;13.13;;;7.73;;
10884;SDS011;5495;53.252;10.390;2022-11-15T11:24:51;11.13;;;8.27;;
10884;SDS011;5495;53.252;10.390;2022-11-15T11:27:37;10.80;;;7.50;;
10884;SDS011;5495;53.252;10.390;2022-11-15T11:30:16;9.57;;;7.90;;
10884;SDS011;5495;53.252;10.390;2022-11-15T11:32:55;10.63;;;7.57;;
10884;SDS011;5495;53.252;10.390;2022-11-15T11:35:38;10.90;;;7.67;;
10884;SDS011;5495;53.252;10.390;2022-11-15T11:38:15;11.53;;;7.77;;
10884;SDS011;5495;53.252;10.390;2022-11-15T11:40:55;10.77;;;7.70;;
10884;SDS011;5495;53.252;10.390;2022-11-15T11:43:30;11.47;;;7.00;;
10884;SDS011;5495;53.252;10.390;2022-11-15T11:46:11;9.77;;;7.20;;
10884;SDS011;5495;53.252;10.390;2022-11-15T11:48:56;10.13;;;6.93;;
10884;SDS011;5495;53.252;10.390;2022-11-15T11:51:28;8.60;;;6.33;;
10884;SDS011;5495;53.252;10.390;2022-11-15T11:54:00;9.43;;;7.07;;
10884;SDS011;5495;53.252;10.390;2022-11-15T11:56:36;9.07;;;6.63;;
10884;SDS011;5495;53.252;10.390;2022-11-15T11:59:06;10.10;;;6.40;;
10884;SDS011;5495;53.252;10.390;2022-11-15T12:01:40;7.93;;;6.03;;
10884;SDS011;5495;53.252;10.390;2022-11-15T12:04:11;7.90;;;6.20;;
10884;SDS011;5495;53.252;10.390;2022-11-15T12:06:42;7.87;;;6.03;;
10884;SDS011;5495;53.252;10.390;2022-11-15T12:09:14;8.43;;;6.40;;
10884;SDS011;5495;53.252;10.390;2022-11-15T12:11:49;10.50;;;5.70;;
10884;SDS011;5495;53.252;10.390;2022-11-15T12:14:26;8.47;;;6.20;;
10884;SDS011;5495;53.252;10.390;2022-11-15T12:17:00;9.23;;;6.20;;
10884;SDS011;5495;53.252;10.390;2022-11-15T12:19:31;7.77;;;5.83;;
10884;SDS011;5495;53.252;10.390;2022-11-15T12:22:02;7.77;;;6.13;;
10884;SDS011;5495;53.252;10.390;2022-11-15T12:24:37;8.47;;;5.90;;
10884;SDS011;5495;53.252;10.390;2022-11-15T12:27:09;12.30;;;6.20;;
10884;SDS011;5495;53.252;10.390;2022-11-15T12:29:42;9.03;;;5.97;;
10884;SDS011;5495;53.252;10.390;2022-11-15T12:32:16;9.93;;;5.70;;
10884;SDS011;5495;53.252;10.390;2022-11-15T12:34:51;8.60;;;5.97;;
10884;SDS011;5495;53.252;10.390;2022-11-15T12:40:19;6.83;;;5.80;;
10884;SDS011;5495;53.252;10.390;2022-11-15T12:42:58;7.57;;;6.27;;
10884;SDS011;5495;53.252;10.390;2022-11-15T12:45:31;9.93;;;6.47;;
10884;SDS011;5495;53.252;10.390;2022-11-15T12:51:04;8.60;;;6.03;;
10884;SDS011;5495;53.252;10.390;2022-11-15T12:53:32;7.60;;;6.00;;
10884;SDS011;5495;53.252;10.390;2022-11-15T12:56:22;9.13;;;5.90;;
10884;SDS011;5495;53.252;10.390;2022-11-15T12:58:54;7.73;;;6.53;;
10884;SDS011;5495;53.252;10.390;2022-11-15T13:04:24;9.83;;;6.53;;
10884;SDS011;5495;53.252;10.390;2022-11-15T13:06:55;9.87;;;6.50;;
10884;SDS011;5495;53.252;10.390;2022-11-15T13:18:32;10.90;;;6.67;;
10884;SDS011;5495;53.252;10.390;2022-11-15T13:21:03;10.73;;;6.50;;
10884;SDS011;5495;53.252;10.390;2022-11-15T13:24:02;10.40;;;6.90;;
10884;SDS011;5495;53.252;10.390;2022-11-15T13:26:30;9.07;;;6.50;;
10884;SDS011;5495;53.252;10.390;2022-11-15T13:28:57;9.47;;;6.20;;
10884;SDS011;5495;53.252;10.390;2022-11-15T13:31:27;7.83;;;6.40;;
10884;SDS011;5495;53.252;10.390;2022-11-15T13:34:02;9.53;;;6.40;;
10884;SDS011;5495;53.252;10.390;2022-11-15T13:36:41;9.07;;;6.90;;
10884;SDS011;5495;53.252;10.390;2022-11-15T13:39:13;9.87;;;6.60;;
10884;SDS011;5495;53.252;10.390;2022-11-15T13:41:53;10.50;;;6.20;;
10884;SDS011;5495;53.252;10.390;2022-11-15T13:44:20;9.00;;;6.50;;
10884;SDS011;5495;53.252;10.390;2022-11-15T13:46:48;8.70;;;6.30;;
10884;SDS011;5495;53.252;10.390;2022-11-15T13:49:28;9.97;;;7.17;;
10884;SDS011;5495;53.252;10.390;2022-11-15T13:51:56;7.77;;;6.10;;
10884;SDS011;5495;53.252;10.390;2022-11-15T13:54:26;10.40;;;6.20;;
10884;SDS011;5495;53.252;10.390;2022-11-15T13:57:02;9.47;;;7.00;;
10884;SDS011;5495;53.252;10.390;2022-11-15T13:59:33;9.77;;;6.67;;
10884;SDS011;5495;53.252;10.390;2022-11-15T14:02:02;8.43;;;6.03;;
10884;SDS011;5495;53.252;10.390;2022-11-15T14:04:38;8.97;;;6.53;;
10884;SDS011;5495;53.252;10.390;2022-11-15T14:07:15;10.00;;;6.13;;
10884;SDS011;5495;53.252;10.390;2022-11-15T14:09:45;7.63;;;6.33;;
10884;SDS011;5495;53.252;10.390;2022-11-15T14:12:25;7.37;;;6.47;;
10884;SDS011;5495;53.252;10.390;2022-11-15T14:14:55;7.73;;;6.30;;
10884;SDS011;5495;53.252;10.390;2022-11-15T14:17:32;9.30;;;6.20;;
10884;SDS011;5495;53.252;10.390;2022-11-15T14:20:01;11.30;;;6.77;;
10884;SDS011;5495;53.252;10.390;2022-11-15T14:22:29;7.93;;;6.53;;
10884;SDS011;5495;53.252;10.390;2022-11-15T14:25:17;11.33;;;6.50;;
10884;SDS011;5495;53.252;10.390;2022-11-15T14:27:45;9.53;;;6.40;;
10884;SDS011;5495;53.252;10.390;2022-11-15T14:30:39;9.23;;;6.20;;
10884;SDS011;5495;53.252;10.390;2022-11-15T14:33:18;11.73;;;6.97;;
10884;SDS011;5495;53.252;10.390;2022-11-15T14:35:47;9.57;;;6.70;;
10884;SDS011;5495;53.252;10.390;2022-11-15T14:38:14;8.53;;;6.50;;
10884;SDS011;5495;53.252;10.390;2022-11-15T14:40:42;7.23;;;5.80;;
10884;SDS011;5495;53.252;10.390;2022-11-15T14:43:09;8.20;;;6.80;;
10884;SDS011;5495;53.252;10.390;2022-11-15T14:45:37;9.53;;;6.60;;
10884;SDS011;5495;53.252;10.390;2022-11-15T14:48:04;8.03;;;6.07;;
10884;SDS011;5495;53.252;10.390;2022-11-15T14:50:32;8.00;;;6.97;;
10884;SDS011;5495;53.252;10.390;2022-11-15T14:53:00;8.90;;;6.27;;
10884;SDS011;5495;53.252;10.390;2022-11-15T14:55:28;9.67;;;6.60;;
10884;SDS011;5495;53.252;10.390;2022-11-15T14:58:00;9.43;;;6.57;;
10884;SDS011;5495;53.252;10.390;2022-11-15T15:00:28;8.40;;;6.30;;
10884;SDS011;5495;53.252;10.390;2022-11-15T15:02:55;12.03;;;6.67;;
10884;SDS011;5495;53.252;10.390;2022-11-15T15:05:23;8.67;;;6.53;;
10884;SDS011;5495;53.252;10.390;2022-11-15T15:07:58;8.17;;;6.30;;
10884;SDS011;5495;53.252;10.390;2022-11-15T15:10:25;8.13;;;6.30;;
10884;SDS011;5495;53.252;10.390;2022-11-15T15:12:57;7.20;;;5.90;;